sensor_id;sensor_type;location;lat;lon;timestamp;P1;P2;P0
55043;PMS5003;54902;50.420;18.854;2023-09-12T14:49:41;0;0;0
55043;PMS5003;54902;50.420;18.854;2023-09-12T14:50:12;0;0;0
55043;PMS5003;54902;50.420;18.854;2023-09-12T14:50:43;0;0;0
55043;PMS5003;54902;50.420;18.854;2023-09-12T14:51:19;0;0;0
55043;PMS5003;54902;50.420;18.854;2023-09-12T14:51:50;0;0;0
55043;PMS5003;54902;50.420;18.854;2023-09-12T14:52:21;0;0;0
55043;PMS5003;54902;50.420;18.854;2023-09-12T14:52:52;0;0;0
55043;PMS5003;54902;50.420;18.854;2023-09-12T14:53:23;0;0;0
55043;PMS5003;54902;50.420;18.854;2023-09-12T14:53:54;0;0;0
55043;PMS5003;54902;50.420;18.854;2023-09-12T14:54:25;25;23;17
55043;PMS5003;54902;50.420;18.854;2023-09-12T14:57:41;25;23;17
55043;PMS5003;54902;50.420;18.854;2023-09-12T14:58:14;25;23;17
55043;PMS5003;54902;50.420;18.854;2023-09-12T14:58:45;25;23;17
55043;PMS5003;54902;50.420;18.854;2023-09-12T14:59:16;25;23;17
55043;PMS5003;54902;50.420;18.854;2023-09-12T14:59:47;24;23;17
55043;PMS5003;54902;50.420;18.854;2023-09-12T15:00:18;24;23;17
55043;PMS5003;54902;50.420;18.854;2023-09-12T15:00:49;20;20;15
55043;PMS5003;54902;50.420;18.854;2023-09-12T15:01:20;20;20;15
55043;PMS5003;54902;50.420;18.854;2023-09-12T15:01:51;20;20;15
55043;PMS5003;54902;50.420;18.854;2023-09-12T15:02:24;20;20;15
55043;PMS5003;54902;50.420;18.854;2023-09-12T15:03:03;20;20;15
55043;PMS5003;54902;50.420;18.854;2023-09-12T15:03:35;20;20;15
55043;PMS5003;54902;50.420;18.854;2023-09-12T15:04:09;20;20;15
55043;PMS5003;54902;50.420;18.854;2023-09-12T15:04:42;20;20;15
55043;PMS5003;54902;50.420;18.854;2023-09-12T15:05:13;20;20;15
55043;PMS5003;54902;50.420;18.854;2023-09-12T15:05:45;20;20;15
55043;PMS5003;54902;50.420;18.854;2023-09-12T15:06:16;20;20;15
55043;PMS5003;54902;50.420;18.854;2023-09-12T15:06:47;20;20;15
55043;PMS5003;54902;50.420;18.854;2023-09-12T15:07:18;20;20;15
55043;PMS5003;54902;50.420;18.854;2023-09-12T15:07:49;20;20;15
55043;PMS5003;54902;50.420;18.854;2023-09-12T15:08:20;17;17;12
55043;PMS5003;54902;50.420;18.854;2023-09-12T15:08:51;17;17;12
55043;PMS5003;54902;50.420;18.854;2023-09-12T15:09:23;17;17;12
55043;PMS5003;54902;50.420;18.854;2023-09-12T15:09:54;17;17;12
55043;PMS5003;54902;50.420;18.854;2023-09-12T15:10:25;17;17;12
55043;PMS5003;54902;50.420;18.854;2023-09-12T15:10:56;17;17;12
55043;PMS5003;54902;50.420;18.854;2023-09-12T15:11:27;18;18;12
55043;PMS5003;54902;50.420;18.854;2023-09-12T15:11:58;18;18;12
55043;PMS5003;54902;50.420;18.854;2023-09-12T15:12:29;18;18;12
55043;PMS5003;54902;50.420;18.854;2023-09-12T15:13:00;18;18;12
55043;PMS5003;54902;50.420;18.854;2023-09-12T15:13:31;18;18;12
55043;PMS5003;54902;50.420;18.854;2023-09-12T15:14:02;18;18;12
55043;PMS5003;54902;50.420;18.854;2023-09-12T15:14:34;18;18;12
55043;PMS5003;54902;50.420;18.854;2023-09-12T15:15:05;18;18;12
55043;PMS5003;54902;50.420;18.854;2023-09-12T15:15:37;18;18;13
55043;PMS5003;54902;50.420;18.854;2023-09-12T15:16:08;18;18;13
55043;PMS5003;54902;50.420;18.854;2023-09-12T15:16:39;14;14;11
55043;PMS5003;54902;50.420;18.854;2023-09-12T15:17:10;14;14;11
55043;PMS5003;54902;50.420;18.854;2023-09-12T15:17:41;14;14;11
55043;PMS5003;54902;50.420;18.854;2023-09-12T15:18:12;14;14;11
55043;PMS5003;54902;50.420;18.854;2023-09-12T15:18:43;14;14;11
55043;PMS5003;54902;50.420;18.854;2023-09-12T15:19:14;14;14;11
55043;PMS5003;54902;50.420;18.854;2023-09-12T15:19:46;14;14;11
55043;PMS5003;54902;50.420;18.854;2023-09-12T15:20:17;14;14;11
55043;PMS5003;54902;50.420;18.854;2023-09-12T15:20:49;14;14;11
55043;PMS5003;54902;50.420;18.854;2023-09-12T15:21:22;14;14;11
55043;PMS5003;54902;50.420;18.854;2023-09-12T15:21:53;18;18;14
55043;PMS5003;54902;50.420;18.854;2023-09-12T15:22:24;18;18;14
55043;PMS5003;54902;50.420;18.854;2023-09-12T15:22:55;18;18;14
55043;PMS5003;54902;50.420;18.854;2023-09-12T15:23:26;18;18;14
55043;PMS5003;54902;50.420;18.854;2023-09-12T15:23:59;18;18;14
55043;PMS5003;54902;50.420;18.854;2023-09-12T15:24:30;18;18;14
55043;PMS5003;54902;50.420;18.854;2023-09-12T15:25:01;18;18;14
55043;PMS5003;54902;50.420;18.854;2023-09-12T15:25:33;18;18;14
55043;PMS5003;54902;50.420;18.854;2023-09-12T15:26:06;18;18;14
55043;PMS5003;54902;50.420;18.854;2023-09-12T15:26:37;18;18;14
55043;PMS5003;54902;50.420;18.854;2023-09-12T15:27:15;18;18;14
55043;PMS5003;54902;50.420;18.854;2023-09-12T15:27:46;18;18;14
55043;PMS5003;54902;50.420;18.854;2023-09-12T15:28:17;18;18;14
55043;PMS5003;54902;50.420;18.854;2023-09-12T15:28:48;18;18;14
55043;PMS5003;54902;50.420;18.854;2023-09-12T15:29:19;18;18;14
55043;PMS5003;54902;50.420;18.854;2023-09-12T15:29:50;18;18;14
55043;PMS5003;54902;50.420;18.854;2023-09-12T15:30:21;18;18;14
55043;PMS5003;54902;50.420;18.854;2023-09-12T15:30:52;18;18;14
55043;PMS5003;54902;50.420;18.854;2023-09-12T15:31:23;18;18;14
55043;PMS5003;54902;50.420;18.854;2023-09-12T15:31:54;18;18;14
55043;PMS5003;54902;50.420;18.854;2023-09-12T15:32:25;18;18;14
55043;PMS5003;54902;50.420;18.854;2023-09-12T15:32:57;18;18;14
55043;PMS5003;54902;50.420;18.854;2023-09-12T15:33:28;18;18;14
55043;PMS5003;54902;50.420;18.854;2023-09-12T15:34:00;18;18;14
55043;PMS5003;54902;50.420;18.854;2023-09-12T15:34:31;18;18;14
55043;PMS5003;54902;50.420;18.854;2023-09-12T15:35:02;18;18;14
55043;PMS5003;54902;50.420;18.854;2023-09-12T15:35:34;18;18;14
55043;PMS5003;54902;50.420;18.854;2023-09-12T15:36:05;15;15;12
55043;PMS5003;54902;50.420;18.854;2023-09-12T15:36:39;15;15;12
55043;PMS5003;54902;50.420;18.854;2023-09-12T15:37:13;15;15;12
55043;PMS5003;54902;50.420;18.854;2023-09-12T15:37:45;13;13;11
55043;PMS5003;54902;50.420;18.854;2023-09-12T15:38:16;13;13;11
55043;PMS5003;54902;50.420;18.854;2023-09-12T15:38:47;13;13;11
55043;PMS5003;54902;50.420;18.854;2023-09-12T15:39:18;13;13;11
55043;PMS5003;54902;50.420;18.854;2023-09-12T15:39:49;13;13;11
55043;PMS5003;54902;50.420;18.854;2023-09-12T15:40:20;13;13;11
55043;PMS5003;54902;50.420;18.854;2023-09-12T15:40:52;13;13;11
55043;PMS5003;54902;50.420;18.854;2023-09-12T15:41:24;13;13;11
55043;PMS5003;54902;50.420;18.854;2023-09-12T15:41:55;13;13;11
55043;PMS5003;54902;50.420;18.854;2023-09-12T15:42:27;13;13;11
55043;PMS5003;54902;50.420;18.854;2023-09-12T15:42:58;16;16;14
55043;PMS5003;54902;50.420;18.854;2023-09-12T15:43:29;16;16;14
55043;PMS5003;54902;50.420;18.854;2023-09-12T15:44:00;16;16;14
55043;PMS5003;54902;50.420;18.854;2023-09-12T15:44:33;16;16;14
55043;PMS5003;54902;50.420;18.854;2023-09-12T15:45:04;16;16;14
55043;PMS5003;54902;50.420;18.854;2023-09-12T15:45:40;16;16;14
55043;PMS5003;54902;50.420;18.854;2023-09-12T15:46:10;16;16;14
55043;PMS5003;54902;50.420;18.854;2023-09-12T15:46:42;16;16;14
55043;PMS5003;54902;50.420;18.854;2023-09-12T15:47:13;16;16;14
55043;PMS5003;54902;50.420;18.854;2023-09-12T15:47:44;16;16;14
55043;PMS5003;54902;50.420;18.854;2023-09-12T15:48:15;16;16;14
55043;PMS5003;54902;50.420;18.854;2023-09-12T15:48:46;16;16;14
55043;PMS5003;54902;50.420;18.854;2023-09-12T15:49:17;16;16;14
55043;PMS5003;54902;50.420;18.854;2023-09-12T15:49:48;16;16;14
55043;PMS5003;54902;50.420;18.854;2023-09-12T15:50:19;16;16;14
55043;PMS5003;54902;50.420;18.854;2023-09-12T15:50:50;11;11;9
55043;PMS5003;54902;50.420;18.854;2023-09-12T15:51:22;11;11;9
55043;PMS5003;54902;50.420;18.854;2023-09-12T15:51:53;11;11;9
55043;PMS5003;54902;50.420;18.854;2023-09-12T15:52:24;11;11;9
55043;PMS5003;54902;50.420;18.854;2023-09-12T15:52:55;11;11;9
55043;PMS5003;54902;50.420;18.854;2023-09-12T15:53:26;15;15;10
55043;PMS5003;54902;50.420;18.854;2023-09-12T15:53:57;15;15;10
55043;PMS5003;54902;50.420;18.854;2023-09-12T15:54:28;15;15;10
55043;PMS5003;54902;50.420;18.854;2023-09-12T15:55:00;15;15;10
55043;PMS5003;54902;50.420;18.854;2023-09-12T15:55:35;15;15;10
55043;PMS5003;54902;50.420;18.854;2023-09-12T15:56:06;14;14;10
55043;PMS5003;54902;50.420;18.854;2023-09-12T15:56:37;14;14;10
55043;PMS5003;54902;50.420;18.854;2023-09-12T15:57:10;14;14;10
55043;PMS5003;54902;50.420;18.854;2023-09-12T15:57:43;14;14;10
55043;PMS5003;54902;50.420;18.854;2023-09-12T15:58:14;14;14;10
55043;PMS5003;54902;50.420;18.854;2023-09-12T15:58:46;14;14;10
55043;PMS5003;54902;50.420;18.854;2023-09-12T15:59:20;14;14;10
55043;PMS5003;54902;50.420;18.854;2023-09-12T15:59:51;14;14;10
55043;PMS5003;54902;50.420;18.854;2023-09-12T16:00:22;14;14;10
55043;PMS5003;54902;50.420;18.854;2023-09-12T16:00:53;14;14;10
55043;PMS5003;54902;50.420;18.854;2023-09-12T16:01:27;14;14;10
55043;PMS5003;54902;50.420;18.854;2023-09-12T16:01:59;14;14;10
55043;PMS5003;54902;50.420;18.854;2023-09-12T16:02:30;14;14;10
55043;PMS5003;54902;50.420;18.854;2023-09-12T16:03:01;14;14;10
55043;PMS5003;54902;50.420;18.854;2023-09-12T16:03:33;14;14;10
55043;PMS5003;54902;50.420;18.854;2023-09-12T16:04:04;17;17;12
55043;PMS5003;54902;50.420;18.854;2023-09-12T16:04:36;17;17;12
55043;PMS5003;54902;50.420;18.854;2023-09-12T16:05:07;17;17;12
55043;PMS5003;54902;50.420;18.854;2023-09-12T16:05:39;12;12;8
55043;PMS5003;54902;50.420;18.854;2023-09-12T16:06:10;12;12;8
55043;PMS5003;54902;50.420;18.854;2023-09-12T16:06:41;12;12;8
55043;PMS5003;54902;50.420;18.854;2023-09-12T16:07:13;12;12;8
55043;PMS5003;54902;50.420;18.854;2023-09-12T16:07:44;12;12;8
55043;PMS5003;54902;50.420;18.854;2023-09-12T16:08:15;12;12;8
55043;PMS5003;54902;50.420;18.854;2023-09-12T16:08:46;12;12;8
55043;PMS5003;54902;50.420;18.854;2023-09-12T16:09:18;16;16;12
55043;PMS5003;54902;50.420;18.854;2023-09-12T16:09:49;16;16;12
55043;PMS5003;54902;50.420;18.854;2023-09-12T16:10:20;16;16;12
55043;PMS5003;54902;50.420;18.854;2023-09-12T16:10:51;16;16;12
55043;PMS5003;54902;50.420;18.854;2023-09-12T16:11:23;16;16;12
55043;PMS5003;54902;50.420;18.854;2023-09-12T16:11:55;16;16;12
55043;PMS5003;54902;50.420;18.854;2023-09-12T16:12:26;16;16;12
55043;PMS5003;54902;50.420;18.854;2023-09-12T16:12:58;16;16;12
55043;PMS5003;54902;50.420;18.854;2023-09-12T16:13:29;16;16;12
55043;PMS5003;54902;50.420;18.854;2023-09-12T16:14:00;16;16;12
55043;PMS5003;54902;50.420;18.854;2023-09-12T16:14:31;11;11;9
55043;PMS5003;54902;50.420;18.854;2023-09-12T16:15:03;11;11;9
55043;PMS5003;54902;50.420;18.854;2023-09-12T16:15:36;11;11;9
55043;PMS5003;54902;50.420;18.854;2023-09-12T16:16:07;11;11;9
55043;PMS5003;54902;50.420;18.854;2023-09-12T16:16:39;11;11;9
55043;PMS5003;54902;50.420;18.854;2023-09-12T16:17:10;11;11;9
55043;PMS5003;54902;50.420;18.854;2023-09-12T16:17:41;11;11;9
55043;PMS5003;54902;50.420;18.854;2023-09-12T16:18:14;11;11;9
55043;PMS5003;54902;50.420;18.854;2023-09-12T16:18:45;11;11;9
55043;PMS5003;54902;50.420;18.854;2023-09-12T16:19:16;11;11;9
55043;PMS5003;54902;50.420;18.854;2023-09-12T16:19:47;16;16;13
55043;PMS5003;54902;50.420;18.854;2023-09-12T16:20:19;16;16;13
55043;PMS5003;54902;50.420;18.854;2023-09-12T16:20:50;16;16;13
55043;PMS5003;54902;50.420;18.854;2023-09-12T16:21:21;16;16;13
55043;PMS5003;54902;50.420;18.854;2023-09-12T16:21:55;16;16;13
55043;PMS5003;54902;50.420;18.854;2023-09-12T16:22:26;16;16;13
55043;PMS5003;54902;50.420;18.854;2023-09-12T16:22:57;16;16;13
55043;PMS5003;54902;50.420;18.854;2023-09-12T16:23:28;16;16;13
55043;PMS5003;54902;50.420;18.854;2023-09-12T16:24:01;16;16;13
55043;PMS5003;54902;50.420;18.854;2023-09-12T16:24:33;16;16;13
55043;PMS5003;54902;50.420;18.854;2023-09-12T16:25:04;16;16;13
55043;PMS5003;54902;50.420;18.854;2023-09-12T16:25:36;16;16;13
55043;PMS5003;54902;50.420;18.854;2023-09-12T16:26:07;16;16;13
55043;PMS5003;54902;50.420;18.854;2023-09-12T16:26:38;16;16;13
55043;PMS5003;54902;50.420;18.854;2023-09-12T16:27:09;14;14;12
55043;PMS5003;54902;50.420;18.854;2023-09-12T16:27:41;14;14;12
55043;PMS5003;54902;50.420;18.854;2023-09-12T16:28:12;14;14;12
55043;PMS5003;54902;50.420;18.854;2023-09-12T16:28:43;14;14;12
55043;PMS5003;54902;50.420;18.854;2023-09-12T16:29:14;14;14;12
55043;PMS5003;54902;50.420;18.854;2023-09-12T16:29:45;14;14;12
55043;PMS5003;54902;50.420;18.854;2023-09-12T16:30:16;15;15;12
55043;PMS5003;54902;50.420;18.854;2023-09-12T16:30:47;15;15;12
55043;PMS5003;54902;50.420;18.854;2023-09-12T16:31:18;15;15;12
55043;PMS5003;54902;50.420;18.854;2023-09-12T16:31:49;15;15;12
55043;PMS5003;54902;50.420;18.854;2023-09-12T16:32:20;15;15;12
55043;PMS5003;54902;50.420;18.854;2023-09-12T16:32:52;15;15;12
55043;PMS5003;54902;50.420;18.854;2023-09-12T16:33:23;15;15;12
55043;PMS5003;54902;50.420;18.854;2023-09-12T16:33:54;15;15;12
55043;PMS5003;54902;50.420;18.854;2023-09-12T16:34:25;15;15;12
55043;PMS5003;54902;50.420;18.854;2023-09-12T16:34:56;16;16;13
55043;PMS5003;54902;50.420;18.854;2023-09-12T16:35:27;18;18;13
55043;PMS5003;54902;50.420;18.854;2023-09-12T16:35:59;18;18;13
55043;PMS5003;54902;50.420;18.854;2023-09-12T16:36:31;18;18;13
55043;PMS5003;54902;50.420;18.854;2023-09-12T16:37:02;18;18;13
55043;PMS5003;54902;50.420;18.854;2023-09-12T16:37:34;18;18;13
55043;PMS5003;54902;50.420;18.854;2023-09-12T16:38:06;18;18;13
55043;PMS5003;54902;50.420;18.854;2023-09-12T16:38:37;18;18;13
55043;PMS5003;54902;50.420;18.854;2023-09-12T16:39:08;18;18;13
55043;PMS5003;54902;50.420;18.854;2023-09-12T16:39:39;18;18;13
55043;PMS5003;54902;50.420;18.854;2023-09-12T16:40:12;18;18;13
55043;PMS5003;54902;50.420;18.854;2023-09-12T16:40:45;21;21;16
55043;PMS5003;54902;50.420;18.854;2023-09-12T16:41:16;21;21;16
55043;PMS5003;54902;50.420;18.854;2023-09-12T16:41:47;21;21;16
55043;PMS5003;54902;50.420;18.854;2023-09-12T16:42:18;21;21;16
55043;PMS5003;54902;50.420;18.854;2023-09-12T16:42:49;21;21;16
55043;PMS5003;54902;50.420;18.854;2023-09-12T16:43:20;21;21;16
55043;PMS5003;54902;50.420;18.854;2023-09-12T16:43:52;21;21;16
55043;PMS5003;54902;50.420;18.854;2023-09-12T16:44:23;17;17;13
55043;PMS5003;54902;50.420;18.854;2023-09-12T16:44:54;17;17;13
55043;PMS5003;54902;50.420;18.854;2023-09-12T16:45:25;17;17;13
55043;PMS5003;54902;50.420;18.854;2023-09-12T16:45:56;14;14;10
55043;PMS5003;54902;50.420;18.854;2023-09-12T16:46:27;14;14;10
55043;PMS5003;54902;50.420;18.854;2023-09-12T16:46:58;14;14;10
55043;PMS5003;54902;50.420;18.854;2023-09-12T16:47:29;14;14;10
55043;PMS5003;54902;50.420;18.854;2023-09-12T16:48:00;14;14;10
55043;PMS5003;54902;50.420;18.854;2023-09-12T16:48:34;14;14;10
55043;PMS5003;54902;50.420;18.854;2023-09-12T16:49:06;14;14;10
55043;PMS5003;54902;50.420;18.854;2023-09-12T16:49:37;18;18;14
55043;PMS5003;54902;50.420;18.854;2023-09-12T16:50:13;0;0;0
55043;PMS5003;54902;50.420;18.854;2023-09-12T16:50:53;26;23;18
55043;PMS5003;54902;50.420;18.854;2023-09-12T16:51:24;26;23;18
55043;PMS5003;54902;50.420;18.854;2023-09-12T16:51:55;26;23;18
55043;PMS5003;54902;50.420;18.854;2023-09-12T16:52:26;26;23;18
55043;PMS5003;54902;50.420;18.854;2023-09-12T16:52:57;26;23;18
55043;PMS5003;54902;50.420;18.854;2023-09-12T16:53:28;26;23;18
55043;PMS5003;54902;50.420;18.854;2023-09-12T16:53:59;26;23;18
55043;PMS5003;54902;50.420;18.854;2023-09-12T16:54:32;26;23;18
55043;PMS5003;54902;50.420;18.854;2023-09-12T16:55:03;18;18;15
55043;PMS5003;54902;50.420;18.854;2023-09-12T16:55:35;18;18;15
55043;PMS5003;54902;50.420;18.854;2023-09-12T16:56:06;18;18;15
55043;PMS5003;54902;50.420;18.854;2023-09-12T16:56:37;18;18;15
55043;PMS5003;54902;50.420;18.854;2023-09-12T16:57:08;18;18;15
55043;PMS5003;54902;50.420;18.854;2023-09-12T16:57:44;18;18;15
55043;PMS5003;54902;50.420;18.854;2023-09-12T16:58:16;18;18;15
55043;PMS5003;54902;50.420;18.854;2023-09-12T16:58:47;18;18;15
55043;PMS5003;54902;50.420;18.854;2023-09-12T16:59:18;18;18;15
55043;PMS5003;54902;50.420;18.854;2023-09-12T16:59:49;18;18;15
55043;PMS5003;54902;50.420;18.854;2023-09-12T17:00:23;18;18;15
55043;PMS5003;54902;50.420;18.854;2023-09-12T17:00:54;18;18;15
55043;PMS5003;54902;50.420;18.854;2023-09-12T17:01:25;18;18;15
55043;PMS5003;54902;50.420;18.854;2023-09-12T17:01:56;18;18;15
55043;PMS5003;54902;50.420;18.854;2023-09-12T17:03:19;18;18;15
55043;PMS5003;54902;50.420;18.854;2023-09-12T17:03:56;18;18;15
55043;PMS5003;54902;50.420;18.854;2023-09-12T17:04:31;18;18;15
55043;PMS5003;54902;50.420;18.854;2023-09-12T17:05:02;18;18;15
55043;PMS5003;54902;50.420;18.854;2023-09-12T17:05:34;18;18;15
55043;PMS5003;54902;50.420;18.854;2023-09-12T17:06:08;18;18;15
55043;PMS5003;54902;50.420;18.854;2023-09-12T17:06:51;18;18;15
55043;PMS5003;54902;50.420;18.854;2023-09-12T17:07:22;18;18;15
55043;PMS5003;54902;50.420;18.854;2023-09-12T17:07:53;18;18;15
55043;PMS5003;54902;50.420;18.854;2023-09-12T17:08:24;18;18;15
55043;PMS5003;54902;50.420;18.854;2023-09-12T17:08:55;18;18;15
55043;PMS5003;54902;50.420;18.854;2023-09-12T17:09:34;0;0;0
55043;PMS5003;54902;50.420;18.854;2023-09-12T17:10:05;0;0;0
55043;PMS5003;54902;50.420;18.854;2023-09-12T17:10:38;0;0;0
55043;PMS5003;54902;50.420;18.854;2023-09-12T17:11:09;0;0;0
55043;PMS5003;54902;50.420;18.854;2023-09-12T17:11:40;0;0;0
55043;PMS5003;54902;50.420;18.854;2023-09-12T17:12:12;0;0;0
55043;PMS5003;54902;50.420;18.854;2023-09-12T17:12:45;0;0;0
55043;PMS5003;54902;50.420;18.854;2023-09-12T17:13:16;0;0;0
55043;PMS5003;54902;50.420;18.854;2023-09-12T17:13:47;0;0;0
55043;PMS5003;54902;50.420;18.854;2023-09-12T17:14:18;37;35;27
55043;PMS5003;54902;50.420;18.854;2023-09-12T17:14:49;37;35;27
55043;PMS5003;54902;50.420;18.854;2023-09-12T17:15:20;37;35;27
55043;PMS5003;54902;50.420;18.854;2023-09-12T17:15:55;37;35;27
55043;PMS5003;54902;50.420;18.854;2023-09-12T17:16:26;37;35;27
55043;PMS5003;54902;50.420;18.854;2023-09-12T17:16:57;37;35;27
55043;PMS5003;54902;50.420;18.854;2023-09-12T17:17:28;37;35;27
55043;PMS5003;54902;50.420;18.854;2023-09-12T17:18:00;37;35;27
55043;PMS5003;54902;50.420;18.854;2023-09-12T17:18:32;37;35;27
55043;PMS5003;54902;50.420;18.854;2023-09-12T17:19:05;37;35;27
55043;PMS5003;54902;50.420;18.854;2023-09-12T17:19:37;30;28;21
55043;PMS5003;54902;50.420;18.854;2023-09-12T17:20:08;30;28;21
55043;PMS5003;54902;50.420;18.854;2023-09-12T17:20:40;30;28;21
55043;PMS5003;54902;50.420;18.854;2023-09-12T17:21:11;30;28;21
55043;PMS5003;54902;50.420;18.854;2023-09-12T17:22:25;31;30;22
55043;PMS5003;54902;50.420;18.854;2023-09-12T17:23:07;31;30;22
55043;PMS5003;54902;50.420;18.854;2023-09-12T17:23:39;31;30;22
55043;PMS5003;54902;50.420;18.854;2023-09-12T17:24:10;31;30;22
55043;PMS5003;54902;50.420;18.854;2023-09-12T17:24:41;31;30;22
55043;PMS5003;54902;50.420;18.854;2023-09-12T17:25:16;16;16;13
55043;PMS5003;54902;50.420;18.854;2023-09-12T17:25:47;16;16;13
55043;PMS5003;54902;50.420;18.854;2023-09-12T17:26:21;16;16;13
55043;PMS5003;54902;50.420;18.854;2023-09-12T17:28:48;16;16;13
55043;PMS5003;54902;50.420;18.854;2023-09-12T17:29:19;16;16;13
55043;PMS5003;54902;50.420;18.854;2023-09-12T17:29:53;16;16;13
55043;PMS5003;54902;50.420;18.854;2023-09-12T17:30:24;16;16;13
55043;PMS5003;54902;50.420;18.854;2023-09-12T17:30:55;22;22;15
55043;PMS5003;54902;50.420;18.854;2023-09-12T17:31:26;19;19;13
55043;PMS5003;54902;50.420;18.854;2023-09-12T17:31:57;19;19;13
55043;PMS5003;54902;50.420;18.854;2023-09-12T17:32:31;19;19;13
55043;PMS5003;54902;50.420;18.854;2023-09-12T17:33:03;19;19;13
55043;PMS5003;54902;50.420;18.854;2023-09-12T17:33:34;19;19;13
55043;PMS5003;54902;50.420;18.854;2023-09-12T17:34:05;19;19;13
55043;PMS5003;54902;50.420;18.854;2023-09-12T17:34:45;19;19;13
55043;PMS5003;54902;50.420;18.854;2023-09-12T17:35:23;19;19;13
55043;PMS5003;54902;50.420;18.854;2023-09-12T17:35:54;19;19;13
55043;PMS5003;54902;50.420;18.854;2023-09-12T17:36:25;19;19;13
55043;PMS5003;54902;50.420;18.854;2023-09-12T17:36:56;14;14;12
55043;PMS5003;54902;50.420;18.854;2023-09-12T17:37:27;14;14;12
55043;PMS5003;54902;50.420;18.854;2023-09-12T17:37:58;14;14;12
55043;PMS5003;54902;50.420;18.854;2023-09-12T17:38:29;14;14;12
55043;PMS5003;54902;50.420;18.854;2023-09-12T17:39:01;14;14;12
55043;PMS5003;54902;50.420;18.854;2023-09-12T17:39:32;14;14;12
55043;PMS5003;54902;50.420;18.854;2023-09-12T17:40:04;14;14;12
55043;PMS5003;54902;50.420;18.854;2023-09-12T17:40:38;14;14;12
55043;PMS5003;54902;50.420;18.854;2023-09-12T17:41:09;14;14;12
55043;PMS5003;54902;50.420;18.854;2023-09-12T17:41:41;14;14;12
55043;PMS5003;54902;50.420;18.854;2023-09-12T17:42:12;20;20;18
55043;PMS5003;54902;50.420;18.854;2023-09-12T17:42:43;20;20;18
55043;PMS5003;54902;50.420;18.854;2023-09-12T17:43:14;20;20;18
55043;PMS5003;54902;50.420;18.854;2023-09-12T17:43:45;20;20;18
55043;PMS5003;54902;50.420;18.854;2023-09-12T17:44:16;20;20;18
55043;PMS5003;54902;50.420;18.854;2023-09-12T17:44:47;20;20;18
55043;PMS5003;54902;50.420;18.854;2023-09-12T17:45:18;20;20;18
55043;PMS5003;54902;50.420;18.854;2023-09-12T17:45:53;20;20;18
55043;PMS5003;54902;50.420;18.854;2023-09-12T17:46:25;20;20;18
55043;PMS5003;54902;50.420;18.854;2023-09-12T17:46:56;20;20;18
55043;PMS5003;54902;50.420;18.854;2023-09-12T17:47:27;20;20;18
55043;PMS5003;54902;50.420;18.854;2023-09-12T17:47:58;20;20;18
55043;PMS5003;54902;50.420;18.854;2023-09-12T17:48:29;20;20;18
55043;PMS5003;54902;50.420;18.854;2023-09-12T17:49:01;20;20;18
55043;PMS5003;54902;50.420;18.854;2023-09-12T17:49:32;20;20;18
55043;PMS5003;54902;50.420;18.854;2023-09-12T17:50:04;20;20;18
55043;PMS5003;54902;50.420;18.854;2023-09-12T17:50:35;20;20;18
55043;PMS5003;54902;50.420;18.854;2023-09-12T17:51:08;20;20;18
55043;PMS5003;54902;50.420;18.854;2023-09-12T17:51:39;19;19;17
55043;PMS5003;54902;50.420;18.854;2023-09-12T17:52:10;19;19;17
55043;PMS5003;54902;50.420;18.854;2023-09-12T17:52:41;19;19;15
55043;PMS5003;54902;50.420;18.854;2023-09-12T17:53:12;19;19;15
55043;PMS5003;54902;50.420;18.854;2023-09-12T17:53:43;19;19;15
55043;PMS5003;54902;50.420;18.854;2023-09-12T17:54:15;19;19;15
55043;PMS5003;54902;50.420;18.854;2023-09-12T17:54:46;19;19;15
55043;PMS5003;54902;50.420;18.854;2023-09-12T17:55:17;19;19;15
55043;PMS5003;54902;50.420;18.854;2023-09-12T17:55:52;19;19;15
55043;PMS5003;54902;50.420;18.854;2023-09-12T17:56:23;19;19;15
55043;PMS5003;54902;50.420;18.854;2023-09-12T17:56:54;19;19;15
55043;PMS5003;54902;50.420;18.854;2023-09-12T17:57:25;19;19;15
55043;PMS5003;54902;50.420;18.854;2023-09-12T17:57:56;23;23;17
55043;PMS5003;54902;50.420;18.854;2023-09-12T17:58:27;23;23;17
55043;PMS5003;54902;50.420;18.854;2023-09-12T17:58:59;23;23;17
55043;PMS5003;54902;50.420;18.854;2023-09-12T17:59:31;23;23;17
55043;PMS5003;54902;50.420;18.854;2023-09-12T18:00:02;23;23;17
55043;PMS5003;54902;50.420;18.854;2023-09-12T18:00:35;23;23;17
55043;PMS5003;54902;50.420;18.854;2023-09-12T18:01:06;23;23;17
55043;PMS5003;54902;50.420;18.854;2023-09-12T18:01:37;23;23;17
55043;PMS5003;54902;50.420;18.854;2023-09-12T18:02:09;23;23;17
55043;PMS5003;54902;50.420;18.854;2023-09-12T18:02:41;23;23;17
55043;PMS5003;54902;50.420;18.854;2023-09-12T18:03:12;23;23;17
55043;PMS5003;54902;50.420;18.854;2023-09-12T18:03:43;23;23;17
55043;PMS5003;54902;50.420;18.854;2023-09-12T18:04:14;17;17;12
55043;PMS5003;54902;50.420;18.854;2023-09-12T18:04:45;17;17;12
55043;PMS5003;54902;50.420;18.854;2023-09-12T18:05:16;17;17;12
55043;PMS5003;54902;50.420;18.854;2023-09-12T18:05:47;17;17;12
55043;PMS5003;54902;50.420;18.854;2023-09-12T18:06:19;17;17;12
55043;PMS5003;54902;50.420;18.854;2023-09-12T18:06:50;17;17;12
55043;PMS5003;54902;50.420;18.854;2023-09-12T18:07:22;17;17;12
55043;PMS5003;54902;50.420;18.854;2023-09-12T18:07:54;17;17;12
55043;PMS5003;54902;50.420;18.854;2023-09-12T18:08:26;21;21;17
55043;PMS5003;54902;50.420;18.854;2023-09-12T18:08:57;21;21;17
55043;PMS5003;54902;50.420;18.854;2023-09-12T18:09:29;21;21;17
55043;PMS5003;54902;50.420;18.854;2023-09-12T18:10:00;21;21;17
55043;PMS5003;54902;50.420;18.854;2023-09-12T18:10:31;21;21;17
55043;PMS5003;54902;50.420;18.854;2023-09-12T18:11:02;21;21;17
55043;PMS5003;54902;50.420;18.854;2023-09-12T18:11:34;21;21;17
55043;PMS5003;54902;50.420;18.854;2023-09-12T18:12:05;21;21;17
55043;PMS5003;54902;50.420;18.854;2023-09-12T18:12:36;21;21;17
55043;PMS5003;54902;50.420;18.854;2023-09-12T18:13:07;21;21;17
55043;PMS5003;54902;50.420;18.854;2023-09-12T18:13:38;22;22;18
55043;PMS5003;54902;50.420;18.854;2023-09-12T18:14:10;22;22;18
55043;PMS5003;54902;50.420;18.854;2023-09-12T18:14:41;22;22;18
55043;PMS5003;54902;50.420;18.854;2023-09-12T18:15:12;22;22;18
55043;PMS5003;54902;50.420;18.854;2023-09-12T18:15:43;22;22;18
55043;PMS5003;54902;50.420;18.854;2023-09-12T18:16:15;22;22;18
55043;PMS5003;54902;50.420;18.854;2023-09-12T18:16:47;22;22;18